sensor_id;sensor_type;location;lat;lon;timestamp;P1;durP1;ratioP1;P2;durP2;ratioP2
23496;SDS011;11925;48.122;11.560;2022-12-07T00:01:19;13.05;;;7.55;;
23496;SDS011;11925;48.122;11.560;2022-12-07T00:03:49;13.07;;;8.43;;
23496;SDS011;11925;48.122;11.560;2022-12-07T00:06:18;9.68;;;7.07;;
23496;SDS011;11925;48.122;11.560;2022-12-07T00:08:47;11.63;;;7.55;;
23496;SDS011;11925;48.122;11.560;2022-12-07T00:11:16;9.25;;;7.03;;
23496;SDS011;11925;48.122;11.560;2022-12-07T00:13:47;9.20;;;5.95;;
23496;SDS011;11925;48.122;11.560;2022-12-07T00:16:16;11.13;;;7.25;;
23496;SDS011;11925;48.122;11.560;2022-12-07T00:18:45;10.55;;;6.80;;
23496;SDS011;11925;48.122;11.560;2022-12-07T00:21:14;9.27;;;6.40;;
23496;SDS011;11925;48.122;11.560;2022-12-07T00:23:44;9.85;;;6.45;;
23496;SDS011;11925;48.122;11.560;2022-12-07T00:26:13;10.63;;;6.97;;
23496;SDS011;11925;48.122;11.560;2022-12-07T00:28:44;9.82;;;6.82;;
23496;SDS011;11925;48.122;11.560;2022-12-07T00:31:15;8.90;;;6.60;;
23496;SDS011;11925;48.122;11.560;2022-12-07T00:33:44;8.88;;;6.57;;
23496;SDS011;11925;48.122;11.560;2022-12-07T00:36:14;10.35;;;6.50;;
23496;SDS011;11925;48.122;11.560;2022-12-07T00:38:50;8.88;;;6.50;;
23496;SDS011;11925;48.122;11.560;2022-12-07T00:41:19;9.70;;;6.72;;
23496;SDS011;11925;48.122;11.560;2022-12-07T00:43:48;9.80;;;6.45;;
23496;SDS011;11925;48.122;11.560;2022-12-07T00:46:19;9.77;;;6.30;;
23496;SDS011;11925;48.122;11.560;2022-12-07T00:48:48;9.52;;;6.15;;
23496;SDS011;11925;48.122;11.560;2022-12-07T00:51:18;9.85;;;6.20;;
23496;SDS011;11925;48.122;11.560;2022-12-07T00:53:47;8.80;;;6.30;;
23496;SDS011;11925;48.122;11.560;2022-12-07T00:56:16;8.90;;;6.55;;
23496;SDS011;11925;48.122;11.560;2022-12-07T00:58:49;8.57;;;5.88;;
23496;SDS011;11925;48.122;11.560;2022-12-07T01:01:19;9.98;;;6.03;;
23496;SDS011;11925;48.122;11.560;2022-12-07T01:03:48;9.38;;;6.43;;
23496;SDS011;11925;48.122;11.560;2022-12-07T01:06:17;9.10;;;6.32;;
23496;SDS011;11925;48.122;11.560;2022-12-07T01:08:46;7.70;;;5.97;;
23496;SDS011;11925;48.122;11.560;2022-12-07T01:11:15;8.70;;;6.22;;
23496;SDS011;11925;48.122;11.560;2022-12-07T01:13:44;8.50;;;6.22;;
23496;SDS011;11925;48.122;11.560;2022-12-07T01:16:14;8.30;;;6.10;;
23496;SDS011;11925;48.122;11.560;2022-12-07T01:18:45;8.65;;;6.20;;
23496;SDS011;11925;48.122;11.560;2022-12-07T01:21:14;9.00;;;6.13;;
23496;SDS011;11925;48.122;11.560;2022-12-07T01:23:44;9.23;;;5.93;;
23496;SDS011;11925;48.122;11.560;2022-12-07T01:26:14;7.95;;;5.72;;
23496;SDS011;11925;48.122;11.560;2022-12-07T01:28:43;7.82;;;5.78;;
23496;SDS011;11925;48.122;11.560;2022-12-07T01:31:13;8.75;;;6.30;;
23496;SDS011;11925;48.122;11.560;2022-12-07T01:33:43;9.15;;;5.82;;
23496;SDS011;11925;48.122;11.560;2022-12-07T01:36:15;8.82;;;6.03;;
23496;SDS011;11925;48.122;11.560;2022-12-07T01:38:45;10.60;;;6.05;;
23496;SDS011;11925;48.122;11.560;2022-12-07T01:41:14;8.35;;;5.55;;
23496;SDS011;11925;48.122;11.560;2022-12-07T01:46:27;8.85;;;5.82;;
23496;SDS011;11925;48.122;11.560;2022-12-07T01:48:57;8.80;;;5.90;;
23496;SDS011;11925;48.122;11.560;2022-12-07T01:51:27;9.55;;;6.13;;
23496;SDS011;11925;48.122;11.560;2022-12-07T01:53:56;9.27;;;6.57;;
23496;SDS011;11925;48.122;11.560;2022-12-07T01:56:26;9.93;;;5.60;;
23496;SDS011;11925;48.122;11.560;2022-12-07T01:58:57;10.57;;;6.55;;
23496;SDS011;11925;48.122;11.560;2022-12-07T02:01:31;9.82;;;6.15;;
23496;SDS011;11925;48.122;11.560;2022-12-07T02:04:01;7.97;;;5.85;;
23496;SDS011;11925;48.122;11.560;2022-12-07T02:06:32;7.80;;;5.78;;
23496;SDS011;11925;48.122;11.560;2022-12-07T02:09:01;9.70;;;6.25;;
23496;SDS011;11925;48.122;11.560;2022-12-07T02:11:30;9.20;;;5.95;;
23496;SDS011;11925;48.122;11.560;2022-12-07T02:13:59;8.80;;;6.05;;
23496;SDS011;11925;48.122;11.560;2022-12-07T02:16:30;8.70;;;6.32;;
23496;SDS011;11925;48.122;11.560;2022-12-07T02:19:08;8.77;;;6.63;;
23496;SDS011;11925;48.122;11.560;2022-12-07T02:21:45;8.77;;;6.05;;
23496;SDS011;11925;48.122;11.560;2022-12-07T02:24:28;8.82;;;6.28;;
23496;SDS011;11925;48.122;11.560;2022-12-07T02:30:02;8.98;;;5.97;;
23496;SDS011;11925;48.122;11.560;2022-12-07T02:32:35;7.28;;;5.75;;
23496;SDS011;11925;48.122;11.560;2022-12-07T02:35:09;6.80;;;5.57;;
23496;SDS011;11925;48.122;11.560;2022-12-07T02:37:41;8.82;;;6.13;;
23496;SDS011;11925;48.122;11.560;2022-12-07T02:40:12;8.68;;;6.10;;
23496;SDS011;11925;48.122;11.560;2022-12-07T02:42:44;8.63;;;6.22;;
23496;SDS011;11925;48.122;11.560;2022-12-07T02:45:17;8.00;;;6.10;;
23496;SDS011;11925;48.122;11.560;2022-12-07T02:47:48;9.18;;;6.10;;
23496;SDS011;11925;48.122;11.560;2022-12-07T02:50:19;7.93;;;5.90;;
23496;SDS011;11925;48.122;11.560;2022-12-07T02:52:48;8.15;;;5.80;;
23496;SDS011;11925;48.122;11.560;2022-12-07T02:55:21;8.32;;;5.88;;
23496;SDS011;11925;48.122;11.560;2022-12-07T02:58:03;8.38;;;6.05;;
23496;SDS011;11925;48.122;11.560;2022-12-07T03:00:40;8.10;;;5.90;;
23496;SDS011;11925;48.122;11.560;2022-12-07T03:03:14;8.77;;;6.18;;
23496;SDS011;11925;48.122;11.560;2022-12-07T03:05:52;7.78;;;5.75;;
23496;SDS011;11925;48.122;11.560;2022-12-07T03:08:24;9.30;;;5.60;;
23496;SDS011;11925;48.122;11.560;2022-12-07T03:10:58;9.57;;;6.40;;
23496;SDS011;11925;48.122;11.560;2022-12-07T03:13:28;9.18;;;5.75;;
23496;SDS011;11925;48.122;11.560;2022-12-07T03:16:03;8.70;;;5.78;;
23496;SDS011;11925;48.122;11.560;2022-12-07T03:18:34;9.02;;;6.00;;
23496;SDS011;11925;48.122;11.560;2022-12-07T03:21:06;8.30;;;6.53;;
23496;SDS011;11925;48.122;11.560;2022-12-07T03:23:37;7.93;;;6.03;;
23496;SDS011;11925;48.122;11.560;2022-12-07T03:26:08;9.57;;;5.90;;
23496;SDS011;11925;48.122;11.560;2022-12-07T03:28:47;8.95;;;5.97;;
23496;SDS011;11925;48.122;11.560;2022-12-07T03:31:19;9.48;;;6.38;;
23496;SDS011;11925;48.122;11.560;2022-12-07T03:33:53;9.23;;;6.05;;
23496;SDS011;11925;48.122;11.560;2022-12-07T03:36:28;7.95;;;5.97;;
23496;SDS011;11925;48.122;11.560;2022-12-07T03:39:02;9.07;;;6.57;;
23496;SDS011;11925;48.122;11.560;2022-12-07T03:44:03;9.07;;;6.32;;
23496;SDS011;11925;48.122;11.560;2022-12-07T03:46:36;9.57;;;6.43;;
23496;SDS011;11925;48.122;11.560;2022-12-07T03:49:08;8.40;;;6.00;;
23496;SDS011;11925;48.122;11.560;2022-12-07T03:51:40;9.02;;;6.30;;
23496;SDS011;11925;48.122;11.560;2022-12-07T03:54:11;8.77;;;6.32;;
23496;SDS011;11925;48.122;11.560;2022-12-07T03:56:43;9.15;;;5.82;;
23496;SDS011;11925;48.122;11.560;2022-12-07T03:59:14;9.00;;;6.05;;
23496;SDS011;11925;48.122;11.560;2022-12-07T04:01:51;9.82;;;6.20;;
23496;SDS011;11925;48.122;11.560;2022-12-07T04:04:23;11.32;;;7.47;;
23496;SDS011;11925;48.122;11.560;2022-12-07T04:06:53;9.38;;;6.30;;
23496;SDS011;11925;48.122;11.560;2022-12-07T04:09:22;8.68;;;6.20;;
23496;SDS011;11925;48.122;11.560;2022-12-07T04:11:51;7.97;;;6.15;;
23496;SDS011;11925;48.122;11.560;2022-12-07T04:14:20;9.02;;;6.65;;
23496;SDS011;11925;48.122;11.560;2022-12-07T04:16:51;9.32;;;6.50;;
23496;SDS011;11925;48.122;11.560;2022-12-07T04:19:20;9.90;;;6.68;;
23496;SDS011;11925;48.122;11.560;2022-12-07T04:21:50;8.93;;;6.43;;
23496;SDS011;11925;48.122;11.560;2022-12-07T04:24:20;8.32;;;6.80;;
23496;SDS011;11925;48.122;11.560;2022-12-07T04:26:49;9.32;;;6.70;;
23496;SDS011;11925;48.122;11.560;2022-12-07T04:29:18;8.57;;;6.43;;
23496;SDS011;11925;48.122;11.560;2022-12-07T04:31:47;8.90;;;6.70;;
23496;SDS011;11925;48.122;11.560;2022-12-07T04:34:18;10.35;;;7.30;;
23496;SDS011;11925;48.122;11.560;2022-12-07T04:36:51;11.02;;;7.38;;
23496;SDS011;11925;48.122;11.560;2022-12-07T04:39:20;11.15;;;7.75;;
23496;SDS011;11925;48.122;11.560;2022-12-07T04:41:50;9.88;;;6.35;;
23496;SDS011;11925;48.122;11.560;2022-12-07T04:44:19;10.23;;;7.43;;
23496;SDS011;11925;48.122;11.560;2022-12-07T04:46:49;11.82;;;7.10;;
23496;SDS011;11925;48.122;11.560;2022-12-07T04:49:20;14.25;;;8.30;;
23496;SDS011;11925;48.122;11.560;2022-12-07T04:51:50;9.98;;;7.43;;
23496;SDS011;11925;48.122;11.560;2022-12-07T04:54:21;10.20;;;7.13;;
23496;SDS011;11925;48.122;11.560;2022-12-07T04:56:50;12.45;;;7.78;;
23496;SDS011;11925;48.122;11.560;2022-12-07T04:59:19;10.80;;;7.13;;
23496;SDS011;11925;48.122;11.560;2022-12-07T05:01:48;12.13;;;7.13;;
23496;SDS011;11925;48.122;11.560;2022-12-07T05:04:17;10.40;;;7.10;;
23496;SDS011;11925;48.122;11.560;2022-12-07T05:06:49;10.73;;;7.22;;
23496;SDS011;11925;48.122;11.560;2022-12-07T05:11:46;10.50;;;7.38;;
23496;SDS011;11925;48.122;11.560;2022-12-07T05:14:16;9.75;;;6.78;;
23496;SDS011;11925;48.122;11.560;2022-12-07T05:16:46;9.95;;;7.07;;
23496;SDS011;11925;48.122;11.560;2022-12-07T05:19:17;10.88;;;6.68;;
23496;SDS011;11925;48.122;11.560;2022-12-07T05:21:47;9.80;;;7.25;;
23496;SDS011;11925;48.122;11.560;2022-12-07T05:24:16;10.60;;;6.70;;
23496;SDS011;11925;48.122;11.560;2022-12-07T05:26:45;10.40;;;7.30;;
23496;SDS011;11925;48.122;11.560;2022-12-07T05:29:18;9.23;;;7.28;;
23496;SDS011;11925;48.122;11.560;2022-12-07T05:31:50;13.25;;;8.07;;
23496;SDS011;11925;48.122;11.560;2022-12-07T05:34:20;11.32;;;7.75;;
23496;SDS011;11925;48.122;11.560;2022-12-07T05:36:50;11.15;;;7.43;;
23496;SDS011;11925;48.122;11.560;2022-12-07T05:39:19;11.10;;;7.77;;
23496;SDS011;11925;48.122;11.560;2022-12-07T05:41:50;9.15;;;6.93;;
23496;SDS011;11925;48.122;11.560;2022-12-07T05:44:37;10.10;;;6.15;;
23496;SDS011;11925;48.122;11.560;2022-12-07T05:47:06;10.27;;;7.10;;
23496;SDS011;11925;48.122;11.560;2022-12-07T05:49:35;11.20;;;7.30;;
23496;SDS011;11925;48.122;11.560;2022-12-07T05:52:05;10.23;;;6.93;;
23496;SDS011;11925;48.122;11.560;2022-12-07T05:54:35;10.30;;;7.07;;
23496;SDS011;11925;48.122;11.560;2022-12-07T05:57:04;10.20;;;7.05;;
23496;SDS011;11925;48.122;11.560;2022-12-07T05:59:34;9.77;;;7.40;;
23496;SDS011;11925;48.122;11.560;2022-12-07T06:02:03;11.05;;;7.60;;
23496;SDS011;11925;48.122;11.560;2022-12-07T06:04:34;9.85;;;7.10;;
23496;SDS011;11925;48.122;11.560;2022-12-07T06:07:03;11.47;;;8.23;;
23496;SDS011;11925;48.122;11.560;2022-12-07T06:09:35;10.60;;;7.95;;
23496;SDS011;11925;48.122;11.560;2022-12-07T06:12:05;10.03;;;7.10;;
23496;SDS011;11925;48.122;11.560;2022-12-07T06:14:51;10.48;;;7.47;;
23496;SDS011;11925;48.122;11.560;2022-12-07T06:17:20;10.55;;;7.70;;
23496;SDS011;11925;48.122;11.560;2022-12-07T06:19:49;10.25;;;7.30;;
23496;SDS011;11925;48.122;11.560;2022-12-07T06:22:18;12.27;;;7.20;;
23496;SDS011;11925;48.122;11.560;2022-12-07T06:28:09;12.32;;;8.00;;
23496;SDS011;11925;48.122;11.560;2022-12-07T06:30:38;10.88;;;7.90;;
23496;SDS011;11925;48.122;11.560;2022-12-07T06:33:07;11.68;;;8.10;;
23496;SDS011;11925;48.122;11.560;2022-12-07T06:35:35;16.10;;;9.30;;
23496;SDS011;11925;48.122;11.560;2022-12-07T06:38:04;12.80;;;8.35;;
23496;SDS011;11925;48.122;11.560;2022-12-07T06:40:33;14.07;;;9.73;;
23496;SDS011;11925;48.122;11.560;2022-12-07T06:43:02;12.60;;;9.13;;
23496;SDS011;11925;48.122;11.560;2022-12-07T06:45:33;13.20;;;8.75;;
23496;SDS011;11925;48.122;11.560;2022-12-07T06:48:01;12.70;;;8.13;;
23496;SDS011;11925;48.122;11.560;2022-12-07T06:50:30;13.05;;;8.07;;
23496;SDS011;11925;48.122;11.560;2022-12-07T06:53:11;11.57;;;8.35;;
23496;SDS011;11925;48.122;11.560;2022-12-07T06:56:00;12.05;;;8.27;;
23496;SDS011;11925;48.122;11.560;2022-12-07T07:03:29;12.02;;;7.93;;
23496;SDS011;11925;48.122;11.560;2022-12-07T07:07:27;11.07;;;7.57;;
23496;SDS011;11925;48.122;11.560;2022-12-07T07:13:42;14.18;;;8.27;;
23496;SDS011;11925;48.122;11.560;2022-12-07T07:19:34;13.90;;;9.05;;
23496;SDS011;11925;48.122;11.560;2022-12-07T07:22:10;14.20;;;9.50;;
23496;SDS011;11925;48.122;11.560;2022-12-07T07:25:13;12.77;;;8.57;;
23496;SDS011;11925;48.122;11.560;2022-12-07T07:27:42;11.70;;;8.05;;
23496;SDS011;11925;48.122;11.560;2022-12-07T07:30:11;12.02;;;8.85;;
23496;SDS011;11925;48.122;11.560;2022-12-07T07:32:40;13.77;;;11.13;;
23496;SDS011;11925;48.122;11.560;2022-12-07T07:35:09;12.40;;;9.43;;
23496;SDS011;11925;48.122;11.560;2022-12-07T07:37:40;12.50;;;8.98;;
23496;SDS011;11925;48.122;11.560;2022-12-07T07:40:09;12.70;;;9.15;;
23496;SDS011;11925;48.122;11.560;2022-12-07T07:42:38;16.55;;;9.30;;
23496;SDS011;11925;48.122;11.560;2022-12-07T07:45:07;11.88;;;8.00;;
23496;SDS011;11925;48.122;11.560;2022-12-07T07:47:36;11.30;;;8.32;;
23496;SDS011;11925;48.122;11.560;2022-12-07T07:50:05;11.05;;;7.90;;
23496;SDS011;11925;48.122;11.560;2022-12-07T07:52:35;11.32;;;7.80;;
23496;SDS011;11925;48.122;11.560;2022-12-07T07:55:04;11.90;;;8.10;;
23496;SDS011;11925;48.122;11.560;2022-12-07T07:57:35;10.17;;;7.60;;
23496;SDS011;11925;48.122;11.560;2022-12-07T08:00:05;11.10;;;8.10;;
23496;SDS011;11925;48.122;11.560;2022-12-07T08:02:40;11.63;;;8.23;;
23496;SDS011;11925;48.122;11.560;2022-12-07T08:05:10;13.05;;;8.27;;
23496;SDS011;11925;48.122;11.560;2022-12-07T08:07:41;11.80;;;7.93;;
23496;SDS011;11925;48.122;11.560;2022-12-07T08:10:10;12.88;;;7.97;;
23496;SDS011;11925;48.122;11.560;2022-12-07T08:12:39;11.45;;;7.95;;
23496;SDS011;11925;48.122;11.560;2022-12-07T08:15:22;12.13;;;8.32;;
23496;SDS011;11925;48.122;11.560;2022-12-07T08:17:51;11.75;;;8.07;;
23496;SDS011;11925;48.122;11.560;2022-12-07T08:20:20;12.38;;;8.10;;
23496;SDS011;11925;48.122;11.560;2022-12-07T08:22:50;12.38;;;8.77;;
23496;SDS011;11925;48.122;11.560;2022-12-07T08:25:18;12.73;;;8.32;;
23496;SDS011;11925;48.122;11.560;2022-12-07T08:27:48;12.88;;;9.13;;
23496;SDS011;11925;48.122;11.560;2022-12-07T08:30:17;12.27;;;8.68;;
23496;SDS011;11925;48.122;11.560;2022-12-07T08:32:47;11.25;;;7.93;;
23496;SDS011;11925;48.122;11.560;2022-12-07T08:35:16;13.07;;;8.32;;
23496;SDS011;11925;48.122;11.560;2022-12-07T08:37:44;12.70;;;8.90;;
23496;SDS011;11925;48.122;11.560;2022-12-07T08:40:14;12.23;;;9.05;;
23496;SDS011;11925;48.122;11.560;2022-12-07T08:42:48;13.00;;;9.23;;
23496;SDS011;11925;48.122;11.560;2022-12-07T08:45:17;12.98;;;9.02;;
23496;SDS011;11925;48.122;11.560;2022-12-07T08:47:53;13.50;;;9.02;;
23496;SDS011;11925;48.122;11.560;2022-12-07T08:50:22;12.05;;;8.45;;
23496;SDS011;11925;48.122;11.560;2022-12-07T08:52:52;11.23;;;8.13;;
23496;SDS011;11925;48.122;11.560;2022-12-07T08:55:23;13.00;;;8.57;;
23496;SDS011;11925;48.122;11.560;2022-12-07T08:57:52;10.63;;;7.72;;
23496;SDS011;11925;48.122;11.560;2022-12-07T09:00:21;13.90;;;9.40;;
23496;SDS011;11925;48.122;11.560;2022-12-07T09:02:49;13.73;;;9.10;;
23496;SDS011;11925;48.122;11.560;2022-12-07T09:05:18;14.48;;;9.15;;
23496;SDS011;11925;48.122;11.560;2022-12-07T09:07:47;11.98;;;8.80;;
23496;SDS011;11925;48.122;11.560;2022-12-07T09:10:17;11.65;;;9.02;;
23496;SDS011;11925;48.122;11.560;2022-12-07T09:12:47;12.13;;;8.90;;
23496;SDS011;11925;48.122;11.560;2022-12-07T09:15:16;13.82;;;8.98;;
23496;SDS011;11925;48.122;11.560;2022-12-07T09:17:44;12.98;;;8.38;;
23496;SDS011;11925;48.122;11.560;2022-12-07T09:20:13;13.48;;;9.07;;
23496;SDS011;11925;48.122;11.560;2022-12-07T09:22:42;12.27;;;8.75;;
23496;SDS011;11925;48.122;11.560;2022-12-07T09:25:10;13.80;;;8.52;;
23496;SDS011;11925;48.122;11.560;2022-12-07T09:27:39;13.13;;;9.18;;
23496;SDS011;11925;48.122;11.560;2022-12-07T09:30:09;12.25;;;8.60;;
23496;SDS011;11925;48.122;11.560;2022-12-07T09:32:38;12.73;;;8.85;;
23496;SDS011;11925;48.122;11.560;2022-12-07T09:35:06;13.27;;;8.52;;
23496;SDS011;11925;48.122;11.560;2022-12-07T09:37:36;12.43;;;8.95;;
23496;SDS011;11925;48.122;11.560;2022-12-07T09:40:05;13.10;;;8.77;;
23496;SDS011;11925;48.122;11.560;2022-12-07T09:42:34;12.75;;;8.85;;
23496;SDS011;11925;48.122;11.560;2022-12-07T09:45:06;14.20;;;8.63;;
23496;SDS011;11925;48.122;11.560;2022-12-07T09:47:37;12.10;;;8.35;;
23496;SDS011;11925;48.122;11.560;2022-12-07T09:50:10;12.50;;;8.38;;
23496;SDS011;11925;48.122;11.560;2022-12-07T09:52:41;12.77;;;8.70;;
23496;SDS011;11925;48.122;11.560;2022-12-07T09:55:11;11.63;;;8.02;;
23496;SDS011;11925;48.122;11.560;2022-12-07T09:57:39;12.70;;;8.43;;
23496;SDS011;11925;48.122;11.560;2022-12-07T10:00:11;12.07;;;8.48;;
23496;SDS011;11925;48.122;11.560;2022-12-07T10:02:42;12.93;;;8.75;;
23496;SDS011;11925;48.122;11.560;2022-12-07T10:07:46;12.27;;;8.70;;
23496;SDS011;11925;48.122;11.560;2022-12-07T10:10:16;15.13;;;7.28;;
23496;SDS011;11925;48.122;11.560;2022-12-07T10:15:14;16.75;;;8.77;;
23496;SDS011;11925;48.122;11.560;2022-12-07T10:17:48;15.88;;;9.02;;
23496;SDS011;11925;48.122;11.560;2022-12-07T10:20:19;15.48;;;9.20;;
23496;SDS011;11925;48.122;11.560;2022-12-07T10:22:55;12.40;;;8.15;;
23496;SDS011;11925;48.122;11.560;2022-12-07T10:25:25;12.43;;;8.45;;
23496;SDS011;11925;48.122;11.560;2022-12-07T10:27:58;12.00;;;7.82;;
23496;SDS011;11925;48.122;11.560;2022-12-07T10:30:28;12.85;;;7.32;;
23496;SDS011;11925;48.122;11.560;2022-12-07T10:32:58;10.82;;;6.70;;
23496;SDS011;11925;48.122;11.560;2022-12-07T10:35:27;10.18;;;6.88;;
23496;SDS011;11925;48.122;11.560;2022-12-07T10:37:57;10.02;;;7.07;;
23496;SDS011;11925;48.122;11.560;2022-12-07T10:40:28;9.23;;;6.78;;
23496;SDS011;11925;48.122;11.560;2022-12-07T10:43:00;12.63;;;6.90;;
23496;SDS011;11925;48.122;11.560;2022-12-07T10:45:29;10.73;;;6.35;;
23496;SDS011;11925;48.122;11.560;2022-12-07T10:48:10;10.13;;;6.97;;
23496;SDS011;11925;48.122;11.560;2022-12-07T10:50:43;9.60;;;6.50;;
23496;SDS011;11925;48.122;11.560;2022-12-07T10:53:28;9.50;;;6.40;;
23496;SDS011;11925;48.122;11.560;2022-12-07T10:56:02;10.80;;;6.65;;
23496;SDS011;11925;48.122;11.560;2022-12-07T10:58:42;10.95;;;6.22;;
23496;SDS011;11925;48.122;11.560;2022-12-07T11:01:18;9.15;;;6.53;;
23496;SDS011;11925;48.122;11.560;2022-12-07T11:06:50;8.48;;;5.82;;
23496;SDS011;11925;48.122;11.560;2022-12-07T11:09:30;9.07;;;6.00;;
23496;SDS011;11925;48.122;11.560;2022-12-07T11:12:23;10.70;;;6.28;;
23496;SDS011;11925;48.122;11.560;2022-12-07T11:14:56;8.73;;;5.70;;
23496;SDS011;11925;48.122;11.560;2022-12-07T11:17:30;9.55;;;5.53;;
23496;SDS011;11925;48.122;11.560;2022-12-07T11:20:02;7.93;;;5.30;;
23496;SDS011;11925;48.122;11.560;2022-12-07T11:25:09;8.55;;;5.57;;
23496;SDS011;11925;48.122;11.560;2022-12-07T11:27:44;8.10;;;5.43;;
23496;SDS011;11925;48.122;11.560;2022-12-07T11:30:17;9.02;;;5.10;;
23496;SDS011;11925;48.122;11.560;2022-12-07T11:32:53;8.18;;;5.25;;
23496;SDS011;11925;48.122;11.560;2022-12-07T11:35:26;11.40;;;5.95;;
23496;SDS011;11925;48.122;11.560;2022-12-07T11:38:00;9.32;;;5.53;;
23496;SDS011;11925;48.122;11.560;2022-12-07T11:40:33;9.05;;;5.03;;
23496;SDS011;11925;48.122;11.560;2022-12-07T11:43:04;7.78;;;5.18;;
23496;SDS011;11925;48.122;11.560;2022-12-07T11:45:34;9.38;;;5.55;;
23496;SDS011;11925;48.122;11.560;2022-12-07T11:48:03;8.27;;;4.93;;
23496;SDS011;11925;48.122;11.560;2022-12-07T11:50:34;7.53;;;5.27;;
23496;SDS011;11925;48.122;11.560;2022-12-07T11:53:05;7.15;;;4.88;;
23496;SDS011;11925;48.122;11.560;2022-12-07T11:55:41;8.20;;;5.32;;
23496;SDS011;11925;48.122;11.560;2022-12-07T11:58:14;7.82;;;4.70;;
23496;SDS011;11925;48.122;11.560;2022-12-07T12:00:48;7.25;;;4.63;;
23496;SDS011;11925;48.122;11.560;2022-12-07T12:03:19;9.40;;;4.85;;
23496;SDS011;11925;48.122;11.560;2022-12-07T12:05:50;9.02;;;5.78;;
23496;SDS011;11925;48.122;11.560;2022-12-07T12:08:20;9.20;;;5.45;;
23496;SDS011;11925;48.122;11.560;2022-12-07T12:11:14;8.93;;;4.63;;
23496;SDS011;11925;48.122;11.560;2022-12-07T12:13:52;8.00;;;5.43;;
23496;SDS011;11925;48.122;11.560;2022-12-07T12:16:49;8.75;;;4.97;;
23496;SDS011;11925;48.122;11.560;2022-12-07T12:19:24;7.07;;;4.70;;
23496;SDS011;11925;48.122;11.560;2022-12-07T12:21:55;8.75;;;4.93;;
23496;SDS011;11925;48.122;11.560;2022-12-07T12:24:25;7.78;;;5.13;;
23496;SDS011;11925;48.122;11.560;2022-12-07T12:26:57;8.68;;;5.32;;
23496;SDS011;11925;48.122;11.560;2022-12-07T12:29:28;8.02;;;4.93;;
23496;SDS011;11925;48.122;11.560;2022-12-07T12:32:07;10.13;;;5.10;;
23496;SDS011;11925;48.122;11.560;2022-12-07T12:34:40;9.15;;;5.30;;
23496;SDS011;11925;48.122;11.560;2022-12-07T12:40:12;9.45;;;5.63;;
23496;SDS011;11925;48.122;11.560;2022-12-07T12:43:02;11.68;;;5.93;;
23496;SDS011;11925;48.122;11.560;2022-12-07T12:45:31;8.15;;;5.47;;
23496;SDS011;11925;48.122;11.560;2022-12-07T12:48:01;8.55;;;5.57;;
23496;SDS011;11925;48.122;11.560;2022-12-07T12:50:31;9.52;;;5.90;;
23496;SDS011;11925;48.122;11.560;2022-12-07T12:53:03;8.68;;;5.93;;
23496;SDS011;11925;48.122;11.560;2022-12-07T12:58:29;9.63;;;6.28;;
23496;SDS011;11925;48.122;11.560;2022-12-07T13:03:51;10.00;;;6.43;;
23496;SDS011;11925;48.122;11.560;2022-12-07T13:06:30;11.80;;;7.05;;
23496;SDS011;11925;48.122;11.560;2022-12-07T13:09:01;13.23;;;7.53;;
23496;SDS011;11925;48.122;11.560;2022-12-07T13:11:31;10.18;;;6.72;;
23496;SDS011;11925;48.122;11.560;2022-12-07T13:16:50;13.45;;;8.45;;
23496;SDS011;11925;48.122;11.560;2022-12-07T13:25:05;12.48;;;7.68;;
23496;SDS011;11925;48.122;11.560;2022-12-07T13:27:36;8.60;;;6.63;;
23496;SDS011;11925;48.122;11.560;2022-12-07T13:30:09;11.80;;;7.13;;
23496;SDS011;11925;48.122;11.560;2022-12-07T13:32:43;11.02;;;7.43;;
23496;SDS011;11925;48.122;11.560;2022-12-07T13:35:27;12.50;;;6.45;;
23496;SDS011;11925;48.122;11.560;2022-12-07T13:37:55;10.75;;;6.55;;
23496;SDS011;11925;48.122;11.560;2022-12-07T13:40:24;11.25;;;6.90;;
23496;SDS011;11925;48.122;11.560;2022-12-07T13:42:59;11.05;;;6.90;;
23496;SDS011;11925;48.122;11.560;2022-12-07T13:45:29;9.20;;;6.18;;
23496;SDS011;11925;48.122;11.560;2022-12-07T13:48:20;10.82;;;6.57;;
23496;SDS011;11925;48.122;11.560;2022-12-07T13:50:53;9.55;;;6.25;;
23496;SDS011;11925;48.122;11.560;2022-12-07T13:53:22;8.75;;;5.68;;
23496;SDS011;11925;48.122;11.560;2022-12-07T13:55:51;11.90;;;7.35;;
23496;SDS011;11925;48.122;11.560;2022-12-07T13:58:20;12.13;;;6.53;;
23496;SDS011;11925;48.122;11.560;2022-12-07T14:00:49;11.48;;;6.88;;
23496;SDS011;11925;48.122;11.560;2022-12-07T14:03:27;10.00;;;6.35;;
23496;SDS011;11925;48.122;11.560;2022-12-07T14:06:03;13.07;;;6.75;;
23496;SDS011;11925;48.122;11.560;2022-12-07T14:08:33;8.93;;;5.82;;
23496;SDS011;11925;48.122;11.560;2022-12-07T14:11:01;10.13;;;5.60;;
23496;SDS011;11925;48.122;11.560;2022-12-07T14:13:31;10.95;;;5.95;;
23496;SDS011;11925;48.122;11.560;2022-12-07T14:16:00;10.70;;;6.28;;
23496;SDS011;11925;48.122;11.560;2022-12-07T14:18:34;13.10;;;6.50;;
23496;SDS011;11925;48.122;11.560;2022-12-07T14:21:04;10.88;;;6.50;;
23496;SDS011;11925;48.122;11.560;2022-12-07T14:23:35;11.85;;;6.38;;
23496;SDS011;11925;48.122;11.560;2022-12-07T14:26:05;9.25;;;5.50;;
23496;SDS011;11925;48.122;11.560;2022-12-07T14:28:35;9.75;;;5.97;;
23496;SDS011;11925;48.122;11.560;2022-12-07T14:31:07;10.73;;;6.55;;
23496;SDS011;11925;48.122;11.560;2022-12-07T14:33:49;8.98;;;6.03;;
23496;SDS011;11925;48.122;11.560;2022-12-07T14:36:18;11.70;;;5.82;;
23496;SDS011;11925;48.122;11.560;2022-12-07T14:38:47;10.30;;;5.68;;
23496;SDS011;11925;48.122;11.560;2022-12-07T14:41:16;12.05;;;5.90;;
23496;SDS011;11925;48.122;11.560;2022-12-07T14:44:07;11.00;;;5.90;;
23496;SDS011;11925;48.122;11.560;2022-12-07T14:46:50;11.93;;;6.50;;
23496;SDS011;11925;48.122;11.560;2022-12-07T14:49:41;10.43;;;6.00;;
23496;SDS011;11925;48.122;11.560;2022-12-07T14:52:11;11.30;;;5.35;;
23496;SDS011;11925;48.122;11.560;2022-12-07T14:55:01;11.80;;;6.43;;
23496;SDS011;11925;48.122;11.560;2022-12-07T14:57:30;9.65;;;5.45;;
23496;SDS011;11925;48.122;11.560;2022-12-07T15:00:01;8.93;;;5.15;;
23496;SDS011;11925;48.122;11.560;2022-12-07T15:02:30;8.07;;;4.97;;
23496;SDS011;11925;48.122;11.560;2022-12-07T15:04:59;10.90;;;5.35;;
23496;SDS011;11925;48.122;11.560;2022-12-07T15:07:29;7.95;;;4.82;;
23496;SDS011;11925;48.122;11.560;2022-12-07T15:09:57;9.27;;;5.03;;
23496;SDS011;11925;48.122;11.560;2022-12-07T15:12:26;10.50;;;5.13;;
23496;SDS011;11925;48.122;11.560;2022-12-07T15:14:55;10.32;;;5.85;;
23496;SDS011;11925;48.122;11.560;2022-12-07T15:17:24;10.23;;;6.40;;
23496;SDS011;11925;48.122;11.560;2022-12-07T15:19:57;14.80;;;6.57;;
23496;SDS011;11925;48.122;11.560;2022-12-07T15:22:28;10.60;;;5.95;;
23496;SDS011;11925;48.122;11.560;2022-12-07T15:25:04;9.68;;;5.93;;
23496;SDS011;11925;48.122;11.560;2022-12-07T15:27:33;12.25;;;6.35;;
23496;SDS011;11925;48.122;11.560;2022-12-07T15:30:02;31.13;;;18.85;;
23496;SDS011;11925;48.122;11.560;2022-12-07T15:32:30;18.00;;;11.18;;
23496;SDS011;11925;48.122;11.560;2022-12-07T15:34:59;14.75;;;9.05;;
23496;SDS011;11925;48.122;11.560;2022-12-07T15:37:29;10.38;;;6.78;;
23496;SDS011;11925;48.122;11.560;2022-12-07T15:39:58;10.55;;;6.70;;
23496;SDS011;11925;48.122;11.560;2022-12-07T15:42:33;10.75;;;7.13;;
23496;SDS011;11925;48.122;11.560;2022-12-07T15:45:02;10.27;;;5.90;;
23496;SDS011;11925;48.122;11.560;2022-12-07T15:47:31;11.07;;;6.72;;
23496;SDS011;11925;48.122;11.560;2022-12-07T15:50:20;9.95;;;6.30;;